createdAt,value
2023-04-28T00:01:07.420Z,10.70
2023-04-28T00:03:34.064Z,16.47
2023-04-28T00:06:00.929Z,13.60
2023-04-28T00:08:27.577Z,10.33
2023-04-28T00:10:54.095Z,15.00
2023-04-28T00:13:20.746Z,9.10
2023-04-28T00:15:47.315Z,10.80
2023-04-28T00:18:14.106Z,7.60
2023-04-28T00:20:40.919Z,12.73
2023-04-28T00:23:07.498Z,12.43
2023-04-28T00:25:34.017Z,8.43
2023-04-28T00:28:01.491Z,10.33
2023-04-28T00:30:27.991Z,13.80
2023-04-28T00:32:54.559Z,10.93
2023-04-28T00:35:21.169Z,11.30
2023-04-28T00:37:47.698Z,6.97
2023-04-28T00:40:14.245Z,11.83
2023-04-28T00:42:40.898Z,10.00
2023-04-28T00:45:07.590Z,12.47
2023-04-28T00:47:34.591Z,10.47
2023-04-28T00:50:01.482Z,12.50
2023-04-28T00:52:28.080Z,17.50
2023-04-28T00:54:54.627Z,7.47
2023-04-28T00:57:21.172Z,28.33
2023-04-28T00:59:47.694Z,12.30
2023-04-28T01:02:17.492Z,17.70
2023-04-28T01:04:44.193Z,11.00
2023-04-28T01:07:11.665Z,11.30
2023-04-28T01:09:38.211Z,9.40
2023-04-28T01:12:04.802Z,13.70
2023-04-28T01:14:31.311Z,16.00
2023-04-28T01:16:57.901Z,13.07
2023-04-28T01:19:24.540Z,11.93
2023-04-28T01:21:51.136Z,14.73
2023-04-28T01:24:17.967Z,14.97
2023-04-28T01:26:47.858Z,14.30
2023-04-28T01:29:14.408Z,10.97
2023-04-28T01:31:41.095Z,13.80
2023-04-28T01:34:07.928Z,14.57
2023-04-28T01:36:37.267Z,13.20
2023-04-28T01:39:04.448Z,12.80
2023-04-28T01:41:31.073Z,10.87
2023-04-28T01:43:57.899Z,13.63
2023-04-28T01:46:24.458Z,13.03
2023-04-28T01:48:51.004Z,13.27
2023-04-28T01:51:17.527Z,10.20
2023-04-28T01:53:44.030Z,8.23
2023-04-28T01:56:10.630Z,9.23
2023-04-28T01:58:37.241Z,10.73
2023-04-28T02:01:03.921Z,7.73
2023-04-28T02:03:30.659Z,10.17
2023-04-28T02:05:57.238Z,12.97
2023-04-28T02:08:23.814Z,14.73
2023-04-28T02:10:50.799Z,13.70
2023-04-28T02:13:17.297Z,14.60
2023-04-28T02:15:43.907Z,12.00
2023-04-28T02:18:10.549Z,12.10
2023-04-28T02:20:37.104Z,13.97
2023-04-28T02:23:03.708Z,13.10
2023-04-28T02:25:30.205Z,14.10
2023-04-28T02:27:57.349Z,16.80
2023-04-28T02:30:23.927Z,15.17
2023-04-28T02:32:50.623Z,13.90
2023-04-28T02:35:17.240Z,18.03
2023-04-28T02:37:43.777Z,18.90
2023-04-28T02:40:10.464Z,23.93
2023-04-28T02:42:37.484Z,19.13
2023-04-28T02:45:03.992Z,20.17
2023-04-28T02:47:30.723Z,18.40
2023-04-28T02:49:57.325Z,12.10
2023-04-28T02:52:23.881Z,11.80
2023-04-28T02:54:54.305Z,15.90
2023-04-28T02:57:21.178Z,17.33
2023-04-28T02:59:47.729Z,15.90
2023-04-28T03:02:14.706Z,16.40
2023-04-28T03:04:41.565Z,14.60
2023-04-28T03:07:08.143Z,13.17
2023-04-28T03:09:34.822Z,16.07
2023-04-28T03:12:03.321Z,16.00
2023-04-28T03:14:29.862Z,15.67
2023-04-28T03:16:57.901Z,20.10
2023-04-28T03:19:24.447Z,17.17
2023-04-28T03:21:51.043Z,18.83
2023-04-28T03:24:17.955Z,16.17
2023-04-28T03:26:44.747Z,20.87
2023-04-28T03:29:11.519Z,15.60
2023-04-28T03:31:38.139Z,16.13
2023-04-28T03:34:04.777Z,15.40
2023-04-28T03:36:31.911Z,17.80
2023-04-28T03:38:58.429Z,17.60
2023-04-28T03:41:24.970Z,19.47
2023-04-28T03:43:53.190Z,17.63
2023-04-28T03:46:19.846Z,16.10
2023-04-28T03:48:46.589Z,27.97
2023-04-28T03:51:13.141Z,26.30
2023-04-28T03:53:39.685Z,20.07
2023-04-28T03:56:06.213Z,18.53
2023-04-28T03:58:32.723Z,19.33
2023-04-28T04:01:00.894Z,27.37
2023-04-28T04:03:27.703Z,14.00
2023-04-28T04:05:55.641Z,14.57
2023-04-28T04:08:22.230Z,17.53
2023-04-28T04:10:48.775Z,12.07
2023-04-28T04:13:15.467Z,20.47
2023-04-28T04:15:42.043Z,19.97
2023-04-28T04:18:08.747Z,18.47
2023-04-28T04:20:35.346Z,16.20
2023-04-28T04:23:02.001Z,15.13
2023-04-28T04:25:28.847Z,21.63
2023-04-28T04:27:55.441Z,17.07
2023-04-28T04:30:22.108Z,20.43
2023-04-28T04:32:48.860Z,20.37
2023-04-28T04:35:15.623Z,15.57
2023-04-28T04:37:42.257Z,17.33
2023-04-28T04:40:09.015Z,23.97
2023-04-28T04:42:35.570Z,27.30
2023-04-28T04:45:02.107Z,14.20
2023-04-28T04:47:28.704Z,20.37
2023-04-28T04:49:55.293Z,19.80
2023-04-28T04:52:22.124Z,21.10
2023-04-28T04:54:48.852Z,19.30
2023-04-28T04:57:15.375Z,22.17
2023-04-28T04:59:41.918Z,22.17
2023-04-28T05:02:08.596Z,19.37
2023-04-28T05:04:35.558Z,20.50
2023-04-28T05:07:02.110Z,20.77
2023-04-28T05:09:30.342Z,24.13
2023-04-28T05:11:56.846Z,19.67
2023-04-28T05:14:23.417Z,17.70
2023-04-28T05:16:50.072Z,14.20
2023-04-28T05:19:16.763Z,18.47
2023-04-28T05:21:43.582Z,19.07
2023-04-28T05:24:10.184Z,16.77
2023-04-28T05:26:36.952Z,20.00
2023-04-28T05:29:03.543Z,17.57
2023-04-28T05:31:30.090Z,16.17
2023-04-28T05:33:56.944Z,18.80
2023-04-28T05:36:23.579Z,21.47
2023-04-28T05:38:50.117Z,14.73
2023-04-28T05:41:16.624Z,14.30
2023-04-28T05:43:43.176Z,19.80
2023-04-28T05:46:18.163Z,21.93
2023-04-28T05:48:55.363Z,18.73
2023-04-28T05:51:22.383Z,21.07
2023-04-28T05:53:49.020Z,16.87
2023-04-28T05:56:16.234Z,17.30
2023-04-28T05:58:44.912Z,15.40
2023-04-28T06:01:11.851Z,13.93
2023-04-28T06:03:38.635Z,15.53
2023-04-28T06:06:08.883Z,26.23
2023-04-28T06:08:36.596Z,20.50
2023-04-28T06:11:03.148Z,14.70
2023-04-28T06:13:29.707Z,18.57
2023-04-28T06:15:56.297Z,19.53
2023-04-28T06:18:24.218Z,13.73
2023-04-28T06:20:50.993Z,19.03
2023-04-28T06:23:17.523Z,20.33
2023-04-28T06:25:44.153Z,14.17
2023-04-28T06:28:12.345Z,14.47
2023-04-28T06:30:38.911Z,14.40
2023-04-28T06:33:05.528Z,16.53
2023-04-28T06:35:32.917Z,25.27
2023-04-28T06:37:59.524Z,12.40
2023-04-28T06:40:26.072Z,15.17
2023-04-28T06:42:52.568Z,15.90
2023-04-28T06:45:19.129Z,15.23
2023-04-28T06:47:45.744Z,13.90
2023-04-28T06:50:12.601Z,25.43
2023-04-28T06:52:39.944Z,18.27
2023-04-28T06:55:06.854Z,18.43
2023-04-28T06:57:33.372Z,16.40
2023-04-28T06:59:59.882Z,19.20
2023-04-28T07:02:27.137Z,14.73
2023-04-28T07:04:53.831Z,11.43
2023-04-28T07:07:20.439Z,17.27
2023-04-28T07:09:46.989Z,13.67
2023-04-28T07:12:13.741Z,13.60
2023-04-28T07:14:40.427Z,15.77
2023-04-28T07:17:06.976Z,13.77
2023-04-28T07:19:33.614Z,14.70
2023-04-28T07:22:00.528Z,15.33
2023-04-28T07:24:27.335Z,13.80
2023-04-28T07:26:54.155Z,15.37
2023-04-28T07:29:20.860Z,13.57
2023-04-28T07:31:47.493Z,11.80
2023-04-28T07:34:14.315Z,26.03
2023-04-28T07:36:41.361Z,13.97
2023-04-28T07:39:07.932Z,15.00
2023-04-28T07:41:34.476Z,17.53
2023-04-28T07:44:00.990Z,16.13
2023-04-28T07:46:27.666Z,12.30
2023-04-28T07:48:54.330Z,18.43
2023-04-28T07:51:20.984Z,18.77
2023-04-28T07:53:47.514Z,17.73
2023-04-28T07:56:14.100Z,17.37
2023-04-28T07:58:40.700Z,16.00
2023-04-28T08:01:07.316Z,20.93
2023-04-28T08:03:34.021Z,12.67
2023-04-28T08:06:01.143Z,15.43
2023-04-28T08:08:28.028Z,15.73
2023-04-28T08:10:55.150Z,17.60
2023-04-28T08:13:21.714Z,17.67
2023-04-28T08:15:48.434Z,10.53
2023-04-28T08:18:15.097Z,16.63
2023-04-28T08:20:41.645Z,12.77
2023-04-28T08:23:08.188Z,14.70
2023-04-28T08:25:34.917Z,16.37
2023-04-28T08:28:03.319Z,14.00
2023-04-28T08:30:29.858Z,13.10
2023-04-28T08:32:56.515Z,14.00
2023-04-28T08:35:23.258Z,18.70
2023-04-28T08:37:49.791Z,17.77
2023-04-28T08:40:16.552Z,10.50
2023-04-28T08:42:45.707Z,18.30
2023-04-28T08:45:12.346Z,9.90
2023-04-28T08:47:39.494Z,23.07
2023-04-28T08:50:06.165Z,15.73
2023-04-28T08:52:33.268Z,12.80
2023-04-28T08:54:59.935Z,17.80
2023-04-28T08:57:27.212Z,14.20
2023-04-28T08:59:53.773Z,14.43
2023-04-28T09:02:20.400Z,14.60
2023-04-28T09:04:47.281Z,18.80
2023-04-28T09:07:13.976Z,16.70
2023-04-28T09:09:41.021Z,20.33
2023-04-28T09:12:07.639Z,12.90
2023-04-28T09:14:34.455Z,11.30
2023-04-28T09:17:01.064Z,21.57
2023-04-28T09:19:27.553Z,12.83
2023-04-28T09:21:54.264Z,18.73
2023-04-28T09:24:20.896Z,14.13
2023-04-28T09:26:47.489Z,13.70
2023-04-28T09:29:14.083Z,16.97
2023-04-28T09:31:40.822Z,12.60
2023-04-28T09:34:09.071Z,14.27
2023-04-28T09:36:35.834Z,11.27
2023-04-28T09:39:02.638Z,19.17
2023-04-28T09:41:29.204Z,15.00
2023-04-28T09:43:56.833Z,16.80
2023-04-28T09:46:23.432Z,16.33
2023-04-28T09:48:49.985Z,16.83
2023-04-28T09:51:16.603Z,17.70
2023-04-28T09:53:44.086Z,10.87
2023-04-28T09:56:10.883Z,13.70
2023-04-28T09:58:38.548Z,13.50
2023-04-28T10:01:05.211Z,14.70
2023-04-28T10:03:31.956Z,14.20
2023-04-28T10:05:58.913Z,18.90
2023-04-28T10:08:25.554Z,16.60
2023-04-28T10:10:55.191Z,17.40
2023-04-28T10:13:22.083Z,13.97
2023-04-28T10:15:49.546Z,22.83
2023-04-28T10:18:16.352Z,15.10
2023-04-28T10:20:42.899Z,12.70
2023-04-28T10:23:09.490Z,17.47
2023-04-28T10:25:36.038Z,16.13
2023-04-28T10:28:02.577Z,15.73
2023-04-28T10:30:30.108Z,16.10
2023-04-28T10:32:57.012Z,17.90
2023-04-28T10:35:23.590Z,13.40
2023-04-28T10:37:50.120Z,24.23
2023-04-28T10:40:16.760Z,16.23
2023-04-28T10:42:43.370Z,18.43
2023-04-28T10:45:09.953Z,13.87
2023-04-28T10:47:36.548Z,17.77
2023-04-28T10:50:03.192Z,15.33
2023-04-28T10:52:29.748Z,14.87
2023-04-28T10:54:56.290Z,17.07
2023-04-28T10:57:23.110Z,16.83
2023-04-28T10:59:50.387Z,14.83
2023-04-28T11:02:17.043Z,18.07
2023-04-28T11:04:43.940Z,20.00
2023-04-28T11:07:11.068Z,17.50
2023-04-28T11:09:37.627Z,18.60
2023-04-28T11:12:05.859Z,22.67
2023-04-28T11:14:32.650Z,16.63
2023-04-28T11:17:02.944Z,15.87
2023-04-28T11:19:29.593Z,16.77
2023-04-28T11:21:56.725Z,15.20
2023-04-28T11:24:25.590Z,16.87
2023-04-28T11:26:55.710Z,16.83
2023-04-28T11:29:22.348Z,15.43
2023-04-28T11:31:49.110Z,18.70
2023-04-28T11:34:15.692Z,13.90
2023-04-28T11:36:42.764Z,12.80
2023-04-28T11:39:09.360Z,13.50
2023-04-28T11:41:36.028Z,16.93
2023-04-28T11:44:02.598Z,15.40
2023-04-28T11:46:29.483Z,15.03
2023-04-28T11:48:56.151Z,9.97
2023-04-28T11:51:22.751Z,9.40
2023-04-28T11:53:49.342Z,12.10
2023-04-28T11:56:16.012Z,7.53
2023-04-28T11:58:42.508Z,8.83
2023-04-28T12:01:09.298Z,8.07
2023-04-28T12:03:36.020Z,7.73
2023-04-28T12:06:03.035Z,11.83
2023-04-28T12:08:29.614Z,6.57
2023-04-28T12:10:56.311Z,6.30
2023-04-28T12:13:22.900Z,3.50
2023-04-28T12:15:49.448Z,8.20
2023-04-28T12:18:19.382Z,9.23
2023-04-28T12:20:46.095Z,6.00
2023-04-28T12:23:12.642Z,11.53
2023-04-28T12:25:43.530Z,4.50
2023-04-28T12:28:10.650Z,5.70
2023-04-28T12:30:41.904Z,5.30
2023-04-28T12:33:09.103Z,9.80
2023-04-28T12:35:35.763Z,8.43
2023-04-28T12:38:02.275Z,8.43
2023-04-28T12:40:28.799Z,4.77
2023-04-28T12:42:55.348Z,7.73
2023-04-28T12:45:21.890Z,6.40
2023-04-28T12:47:48.655Z,7.00
2023-04-28T12:50:15.228Z,5.13
2023-04-28T12:52:41.777Z,3.93
2023-04-28T12:55:08.385Z,50.93
2023-04-28T12:57:39.072Z,3.93
2023-04-28T13:00:06.176Z,2.80
2023-04-28T13:02:32.858Z,3.50
2023-04-28T13:04:59.683Z,2.33
2023-04-28T13:07:26.260Z,2.90
2023-04-28T13:09:52.929Z,5.00
2023-04-28T13:12:19.782Z,3.40
2023-04-28T13:14:46.306Z,3.63
2023-04-28T13:17:13.480Z,2.43
2023-04-28T13:19:40.590Z,2.77
2023-04-28T13:22:07.107Z,3.27
2023-04-28T13:24:33.735Z,4.03
2023-04-28T13:27:00.389Z,10.67
2023-04-28T13:29:26.949Z,4.00
2023-04-28T13:31:53.544Z,3.73
2023-04-28T13:34:20.292Z,13.03
2023-04-28T13:36:48.149Z,11.00
2023-04-28T13:39:14.993Z,5.23
2023-04-28T13:41:41.558Z,5.73
2023-04-28T13:44:08.067Z,6.80
2023-04-28T13:46:34.600Z,4.97
2023-04-28T13:49:01.624Z,7.43
2023-04-28T13:51:28.729Z,7.10
2023-04-28T13:53:55.406Z,3.97
2023-04-28T13:56:21.935Z,5.17
2023-04-28T13:58:48.448Z,8.13
2023-04-28T14:01:15.041Z,18.03
2023-04-28T14:03:41.944Z,39.53
2023-04-28T14:06:08.662Z,5.87
2023-04-28T14:08:35.362Z,4.07
2023-04-28T14:11:02.072Z,7.17
2023-04-28T14:13:29.676Z,5.50
2023-04-28T14:15:59.498Z,4.90
2023-04-28T14:18:26.462Z,7.40
2023-04-28T14:20:54.683Z,5.90
2023-04-28T14:23:21.414Z,33.47
2023-04-28T14:25:48.171Z,7.83
2023-04-28T14:28:14.748Z,4.97
2023-04-28T14:30:41.699Z,4.70
2023-04-28T14:33:08.395Z,5.97
2023-04-28T14:35:35.055Z,8.23
2023-04-28T14:38:01.681Z,4.77
2023-04-28T14:40:28.253Z,32.27
2023-04-28T14:42:54.875Z,5.90
2023-04-28T14:45:21.806Z,3.80
2023-04-28T14:47:48.747Z,6.07
2023-04-28T14:50:15.851Z,7.03
2023-04-28T14:52:42.572Z,4.57
2023-04-28T14:55:09.295Z,7.40
2023-04-28T14:57:37.584Z,5.17
2023-04-28T15:00:05.512Z,4.07
2023-04-28T15:02:32.347Z,6.47
2023-04-28T15:04:59.348Z,3.83
2023-04-28T15:07:31.430Z,5.97
2023-04-28T15:09:58.780Z,12.07
2023-04-28T15:12:25.942Z,4.07
2023-04-28T15:14:53.675Z,4.50
2023-04-28T15:17:21.056Z,8.57
2023-04-28T15:19:47.792Z,12.27
2023-04-28T15:22:14.339Z,18.70
2023-04-28T15:24:41.287Z,9.63
2023-04-28T15:27:07.889Z,8.70
2023-04-28T15:29:34.502Z,9.73
2023-04-28T15:32:01.246Z,10.60
2023-04-28T15:34:27.982Z,10.43
2023-04-28T15:36:54.639Z,6.60
2023-04-28T15:39:21.224Z,16.17
2023-04-28T15:41:47.813Z,13.67
2023-04-28T15:44:14.394Z,9.07
2023-04-28T15:46:41.097Z,5.40
2023-04-28T15:49:07.668Z,4.00
2023-04-28T15:51:34.220Z,6.03
2023-04-28T15:54:00.721Z,15.00
2023-04-28T15:56:27.949Z,7.23
2023-04-28T15:58:54.540Z,4.97
2023-04-28T16:01:21.927Z,6.37
2023-04-28T16:03:48.921Z,6.83
2023-04-28T16:06:15.601Z,11.93
2023-04-28T16:08:42.719Z,5.50
2023-04-28T16:11:09.345Z,4.63
2023-04-28T16:13:37.124Z,5.13
2023-04-28T16:16:04.021Z,5.63
2023-04-28T16:18:30.828Z,5.60
2023-04-28T16:20:57.546Z,6.43
2023-04-28T16:23:24.084Z,6.20
2023-04-28T16:25:50.878Z,7.90
2023-04-28T16:28:17.676Z,6.10
2023-04-28T16:30:44.494Z,4.40
2023-04-28T16:33:11.171Z,6.50
2023-04-28T16:35:37.798Z,6.80
2023-04-28T16:38:04.402Z,7.73
2023-04-28T16:40:30.968Z,9.20
2023-04-28T16:42:57.608Z,9.37
2023-04-28T16:45:24.544Z,12.33
2023-04-28T16:47:51.677Z,13.80
2023-04-28T16:50:18.282Z,12.40
2023-04-28T16:52:44.926Z,18.20
2023-04-28T16:55:11.628Z,18.40
2023-04-28T16:57:38.293Z,13.40
2023-04-28T17:00:04.914Z,14.13
2023-04-28T17:02:33.242Z,14.03
2023-04-28T17:05:00.315Z,17.20
2023-04-28T17:07:27.646Z,24.70
2023-04-28T17:09:54.350Z,22.23
2023-04-28T17:12:23.123Z,23.03
2023-04-28T17:14:51.151Z,22.70
2023-04-28T17:17:18.004Z,23.40
2023-04-28T17:19:44.523Z,29.00
2023-04-28T17:22:11.060Z,23.87
2023-04-28T17:24:37.646Z,15.63
2023-04-28T17:27:04.162Z,20.27
2023-04-28T17:29:31.547Z,14.97
2023-04-28T17:31:58.109Z,11.17
2023-04-28T17:34:24.663Z,13.70
2023-04-28T17:36:51.163Z,12.53
2023-04-28T17:39:17.714Z,10.07
2023-04-28T17:41:45.054Z,10.23
2023-04-28T17:44:12.016Z,11.93
2023-04-28T17:46:38.797Z,9.57
2023-04-28T17:49:05.724Z,10.53
2023-04-28T17:51:32.413Z,8.97
2023-04-28T17:53:59.144Z,9.17
2023-04-28T17:56:25.788Z,9.20
2023-04-28T17:58:52.402Z,18.07
2023-04-28T18:01:19.018Z,9.13
2023-04-28T18:03:45.872Z,9.90
2023-04-28T18:06:13.722Z,7.10
2023-04-28T18:08:40.874Z,7.83
2023-04-28T18:11:09.781Z,8.97
2023-04-28T18:13:36.341Z,8.27
2023-04-28T18:16:04.827Z,5.77
2023-04-28T18:18:34.777Z,6.80
2023-04-28T18:21:02.277Z,6.17
2023-04-28T18:23:30.239Z,6.33
2023-04-28T18:25:56.831Z,6.10
2023-04-28T18:28:23.353Z,5.00
2023-04-28T18:30:49.899Z,6.17
2023-04-28T18:33:19.511Z,4.50
2023-04-28T18:35:47.954Z,12.03
2023-04-28T18:38:14.843Z,5.77
2023-04-28T18:40:41.562Z,6.90
2023-04-28T18:43:08.470Z,4.40
2023-04-28T18:45:35.256Z,5.10
2023-04-28T18:48:05.366Z,5.37
2023-04-28T18:50:32.054Z,5.70
2023-04-28T18:52:58.572Z,5.60
2023-04-28T18:55:25.170Z,8.00
2023-04-28T18:57:51.680Z,15.97
2023-04-28T19:00:19.002Z,8.40
2023-04-28T19:02:45.914Z,8.87
2023-04-28T19:05:12.514Z,13.40
2023-04-28T19:07:39.240Z,10.73
2023-04-28T19:10:05.833Z,13.60
2023-04-28T19:12:32.473Z,13.23
2023-04-28T19:14:58.985Z,11.80
2023-04-28T19:17:25.591Z,8.33
2023-04-28T19:19:52.401Z,10.53
2023-04-28T19:22:18.988Z,7.80
2023-04-28T19:24:45.572Z,9.90
2023-04-28T19:27:12.207Z,11.67
2023-04-28T19:29:39.815Z,6.63
2023-04-28T19:32:06.383Z,7.80
2023-04-28T19:34:33.250Z,15.10
2023-04-28T19:36:59.811Z,12.33
2023-04-28T19:39:28.704Z,11.20
2023-04-28T19:41:55.895Z,17.03
2023-04-28T19:44:22.649Z,13.23
2023-04-28T19:46:49.217Z,10.90
2023-04-28T19:49:17.103Z,13.87
2023-04-28T19:51:43.606Z,13.10
2023-04-28T19:54:10.228Z,14.67
2023-04-28T19:56:36.770Z,19.90
2023-04-28T19:59:03.393Z,13.53
2023-04-28T20:01:30.168Z,14.73
2023-04-28T20:03:56.950Z,15.40
2023-04-28T20:06:23.653Z,18.77
2023-04-28T20:08:50.289Z,13.80
2023-04-28T20:11:17.414Z,15.63
2023-04-28T20:13:44.018Z,17.57
2023-04-28T20:16:10.850Z,17.60
2023-04-28T20:18:40.919Z,16.97
2023-04-28T20:21:07.527Z,19.67
2023-04-28T20:23:34.037Z,16.77
2023-04-28T20:26:00.658Z,17.77
2023-04-28T20:28:27.287Z,15.50
2023-04-28T20:30:53.835Z,19.00
2023-04-28T20:33:21.409Z,21.27
2023-04-28T20:35:47.969Z,23.70
2023-04-28T20:38:14.521Z,22.63
2023-04-28T20:40:41.193Z,21.03
2023-04-28T20:43:07.683Z,20.90
2023-04-28T20:45:34.548Z,24.37
2023-04-28T20:48:01.121Z,26.63
2023-04-28T20:50:28.650Z,28.63
2023-04-28T20:52:55.140Z,22.70
2023-04-28T20:55:22.856Z,31.03
2023-04-28T20:57:49.356Z,22.67
2023-04-28T21:00:16.005Z,22.50
2023-04-28T21:02:43.160Z,24.83
2023-04-28T21:05:10.028Z,22.60
2023-04-28T21:07:36.642Z,27.00
2023-04-28T21:10:03.237Z,21.00
2023-04-28T21:12:29.946Z,23.10
2023-04-28T21:14:56.786Z,20.30
2023-04-28T21:17:23.353Z,24.87
2023-04-28T21:19:50.129Z,23.30
2023-04-28T21:22:16.978Z,22.17
2023-04-28T21:24:43.479Z,21.63
2023-04-28T21:27:10.099Z,23.80
2023-04-28T21:29:36.648Z,25.60
2023-04-28T21:32:03.249Z,25.03
2023-04-28T21:34:29.832Z,22.30
2023-04-28T21:36:56.406Z,24.37
2023-04-28T21:39:23.128Z,24.87
2023-04-28T21:41:49.712Z,23.60
2023-04-28T21:44:16.404Z,25.73
2023-04-28T21:46:42.927Z,27.93
2023-04-28T21:49:09.520Z,22.23
2023-04-28T21:51:36.467Z,23.77
2023-04-28T21:54:03.141Z,23.93
2023-04-28T21:56:29.750Z,29.97
2023-04-28T21:58:56.342Z,23.17
2023-04-28T22:01:22.887Z,28.83
2023-04-28T22:03:49.571Z,24.27
2023-04-28T22:06:16.144Z,23.90
2023-04-28T22:08:43.096Z,23.80
2023-04-28T22:11:09.727Z,18.80
2023-04-28T22:13:36.310Z,27.00
2023-04-28T22:16:03.055Z,21.53
2023-04-28T22:18:29.627Z,24.60
2023-04-28T22:20:56.331Z,20.60
2023-04-28T22:23:22.982Z,19.70
2023-04-28T22:25:49.590Z,21.70
2023-04-28T22:28:18.533Z,34.10
2023-04-28T22:30:45.100Z,25.07
2023-04-28T22:33:11.744Z,21.97
2023-04-28T22:35:38.449Z,24.03
2023-04-28T22:38:05.318Z,23.40
2023-04-28T22:40:32.274Z,26.30
2023-04-28T22:42:58.788Z,28.67
2023-04-28T22:45:26.010Z,32.00
2023-04-28T22:47:52.561Z,25.23
2023-04-28T22:50:19.167Z,34.67
2023-04-28T22:52:45.771Z,33.70
2023-04-28T22:55:13.093Z,30.50
2023-04-28T22:57:39.666Z,27.37
2023-04-28T23:00:06.392Z,37.33
2023-04-28T23:02:33.355Z,42.00
2023-04-28T23:05:00.115Z,33.27
2023-04-28T23:07:26.696Z,32.77
2023-04-28T23:09:53.523Z,32.43
2023-04-28T23:12:21.047Z,39.23
2023-04-28T23:14:47.567Z,31.53
2023-04-28T23:17:14.164Z,43.50
2023-04-28T23:19:40.847Z,33.20
2023-04-28T23:22:07.703Z,29.77
2023-04-28T23:24:34.759Z,28.10
2023-04-28T23:27:01.356Z,33.50
2023-04-28T23:29:27.961Z,30.67
2023-04-28T23:31:54.917Z,26.20
2023-04-28T23:34:21.696Z,28.77
2023-04-28T23:36:48.407Z,25.80
2023-04-28T23:39:15.280Z,30.60
2023-04-28T23:41:41.866Z,28.43
2023-04-28T23:44:08.630Z,34.00
2023-04-28T23:46:35.167Z,29.47
2023-04-28T23:49:01.805Z,32.40
2023-04-28T23:51:28.322Z,31.83
2023-04-28T23:53:54.902Z,35.67
2023-04-28T23:56:21.466Z,36.00
2023-04-28T23:58:48.018Z,29.93
